createdAt,value
2019-04-27T00:01:45.378Z,15.40
2019-04-27T00:04:32.876Z,13.20
2019-04-27T00:07:21.102Z,14.07
2019-04-27T00:10:03.528Z,12.67
2019-04-27T00:12:37.255Z,11.80
2019-04-27T00:15:13.174Z,12.80
2019-04-27T00:18:09.390Z,12.30
2019-04-27T00:20:43.473Z,12.70
2019-04-27T00:23:18.795Z,12.77
2019-04-27T00:25:52.789Z,13.37
2019-04-27T00:28:26.451Z,14.27
2019-04-27T00:31:00.347Z,13.67
2019-04-27T00:33:33.986Z,13.73
2019-04-27T00:36:15.220Z,14.30
2019-04-27T00:38:50.278Z,12.37
2019-04-27T00:41:24.320Z,12.57
2019-04-27T00:43:57.920Z,12.40
2019-04-27T00:46:32.977Z,12.30
2019-04-27T00:49:06.660Z,12.47
2019-04-27T00:51:40.104Z,12.17
2019-04-27T00:54:13.670Z,14.10
2019-04-27T00:57:00.595Z,12.57
2019-04-27T00:59:43.139Z,11.80
2019-04-27T01:02:30.512Z,12.40
2019-04-27T01:05:06.707Z,12.20
2019-04-27T01:07:40.135Z,11.23
2019-04-27T01:10:13.639Z,12.23
2019-04-27T01:12:47.063Z,12.83
2019-04-27T01:15:20.734Z,11.67
2019-04-27T01:18:07.153Z,12.30
2019-04-27T01:20:30.182Z,11.70
2019-04-27T01:23:03.687Z,13.00
2019-04-27T01:25:38.853Z,13.17
2019-04-27T01:28:13.999Z,10.97
2019-04-27T01:30:51.831Z,13.20
2019-04-27T01:33:25.288Z,11.50
2019-04-27T01:35:58.990Z,11.90
2019-04-27T01:38:32.711Z,11.93
2019-04-27T01:41:06.294Z,12.40
2019-04-27T01:43:39.728Z,12.40
2019-04-27T01:46:13.142Z,13.67
2019-04-27T01:48:46.581Z,14.93
2019-04-27T01:51:21.090Z,10.03
2019-04-27T01:53:54.924Z,11.27
2019-04-27T01:56:29.415Z,9.47
2019-04-27T01:59:03.893Z,11.83
2019-04-27T02:01:50.991Z,10.00
2019-04-27T02:04:39.585Z,8.40
2019-04-27T02:07:13.360Z,8.90
2019-04-27T02:09:48.560Z,8.27
2019-04-27T02:12:21.915Z,8.23
2019-04-27T02:14:55.347Z,9.00
2019-04-27T02:17:28.900Z,8.17
2019-04-27T02:20:02.635Z,8.13
2019-04-27T02:22:36.043Z,7.57
2019-04-27T02:25:09.638Z,10.67
2019-04-27T02:27:44.704Z,11.70
2019-04-27T02:30:21.424Z,12.37
2019-04-27T02:32:59.371Z,12.27
2019-04-27T02:35:33.359Z,10.90
2019-04-27T02:38:06.781Z,12.33
2019-04-27T02:40:49.603Z,13.90
2019-04-27T02:43:41.863Z,10.43
2019-04-27T02:46:15.354Z,8.20
2019-04-27T02:48:58.823Z,11.60
2019-04-27T02:51:25.571Z,11.27
2019-04-27T02:54:02.061Z,7.80
2019-04-27T02:56:35.487Z,8.93
2019-04-27T02:59:11.962Z,8.13
2019-04-27T03:01:52.944Z,9.40
2019-04-27T03:04:24.223Z,7.63
2019-04-27T03:07:00.094Z,7.47
2019-04-27T03:09:32.801Z,7.70
2019-04-27T03:12:06.283Z,8.73
2019-04-27T03:14:50.331Z,8.60
2019-04-27T03:17:33.116Z,7.40
2019-04-27T03:20:22.145Z,10.33
2019-04-27T03:22:59.871Z,7.70
2019-04-27T03:25:33.983Z,8.20
2019-04-27T03:28:10.666Z,7.10
2019-04-27T03:30:44.258Z,8.03
2019-04-27T03:33:21.662Z,6.13
2019-04-27T03:35:53.370Z,6.17
2019-04-27T03:38:29.910Z,11.27
2019-04-27T03:41:02.316Z,6.37
2019-04-27T03:43:35.727Z,9.30
2019-04-27T03:46:10.542Z,7.87
2019-04-27T03:48:44.332Z,7.10
2019-04-27T03:51:25.426Z,7.40
2019-04-27T03:54:03.526Z,9.13
2019-04-27T03:56:39.598Z,10.27
2019-04-27T03:59:15.035Z,7.30
2019-04-27T04:01:50.568Z,6.40
2019-04-27T04:04:23.668Z,7.17
2019-04-27T04:07:09.638Z,8.03
2019-04-27T04:09:43.378Z,7.10
2019-04-27T04:12:19.717Z,6.47
2019-04-27T04:14:53.513Z,8.30
2019-04-27T04:17:30.860Z,9.80
2019-04-27T04:20:05.448Z,7.20
2019-04-27T04:22:40.373Z,7.47
2019-04-27T04:25:14.008Z,7.70
2019-04-27T04:27:50.439Z,7.57
2019-04-27T04:30:22.576Z,9.00
2019-04-27T04:32:56.009Z,7.00
2019-04-27T04:35:32.620Z,8.17
2019-04-27T04:38:04.639Z,8.20
2019-04-27T04:40:42.805Z,7.57
2019-04-27T04:43:20.698Z,7.30
2019-04-27T04:45:55.753Z,10.57
2019-04-27T04:48:50.321Z,7.53
2019-04-27T04:51:23.660Z,8.83
2019-04-27T04:53:59.566Z,8.87
2019-04-27T04:56:32.242Z,7.00
2019-04-27T04:59:05.745Z,7.37
2019-04-27T05:01:39.908Z,8.50
2019-04-27T05:04:13.659Z,7.63
2019-04-27T05:06:49.205Z,6.33
2019-04-27T05:09:22.229Z,7.50
2019-04-27T05:11:55.640Z,7.50
2019-04-27T05:14:29.079Z,7.67
2019-04-27T05:17:02.560Z,6.13
2019-04-27T05:19:35.988Z,6.87
2019-04-27T05:22:09.450Z,6.80
2019-04-27T05:24:42.865Z,7.50
2019-04-27T05:27:16.263Z,7.67
2019-04-27T05:29:50.577Z,7.67
2019-04-27T05:32:24.131Z,6.87
2019-04-27T05:34:57.540Z,6.67
2019-04-27T05:37:31.799Z,8.40
2019-04-27T05:40:09.037Z,6.60
2019-04-27T05:42:42.626Z,8.07
2019-04-27T05:45:22.822Z,5.90
2019-04-27T05:48:12.778Z,8.63
2019-04-27T05:50:46.192Z,8.00
2019-04-27T05:53:19.632Z,9.87
2019-04-27T05:55:53.048Z,7.20
2019-04-27T05:58:26.475Z,8.27
2019-04-27T06:00:59.892Z,6.93
2019-04-27T06:03:33.326Z,9.33
2019-04-27T06:06:06.732Z,7.00
2019-04-27T06:08:40.172Z,6.27
2019-04-27T06:11:13.676Z,6.25
2019-04-27T06:13:47.108Z,5.60
2019-04-27T06:16:20.535Z,6.17
2019-04-27T06:18:53.955Z,5.20
2019-04-27T06:21:27.383Z,7.63
2019-04-27T06:24:00.811Z,5.20
2019-04-27T06:26:34.231Z,5.20
2019-04-27T06:29:09.403Z,4.80
2019-04-27T06:31:42.800Z,9.40
2019-04-27T06:34:16.232Z,4.47
2019-04-27T06:36:49.650Z,4.73
2019-04-27T06:39:23.071Z,4.90
2019-04-27T06:41:56.566Z,5.20
2019-04-27T06:44:30.000Z,7.27
2019-04-27T06:47:03.419Z,6.43
2019-04-27T06:49:36.857Z,5.30
2019-04-27T06:52:10.263Z,5.10
2019-04-27T06:54:43.700Z,5.00
2019-04-27T06:57:17.124Z,10.50
2019-04-27T06:59:50.650Z,5.20
2019-04-27T07:02:24.435Z,5.53
2019-04-27T07:04:59.183Z,4.23
2019-04-27T07:07:32.859Z,3.87
2019-04-27T07:10:08.560Z,5.33
2019-04-27T07:12:41.895Z,6.50
2019-04-27T07:15:15.564Z,4.67
2019-04-27T07:17:49.187Z,3.30
2019-04-27T07:20:22.616Z,3.30
2019-04-27T07:22:56.035Z,3.60
2019-04-27T07:25:29.467Z,3.13
2019-04-27T07:28:02.884Z,5.30
2019-04-27T07:30:36.315Z,4.23
2019-04-27T07:33:09.727Z,2.70
2019-04-27T07:35:43.147Z,3.40
2019-04-27T07:38:16.588Z,3.80
2019-04-27T07:40:50.016Z,3.20
2019-04-27T07:43:43.080Z,3.37
2019-04-27T07:46:16.575Z,2.47
2019-04-27T07:48:50.952Z,3.10
2019-04-27T07:51:32.087Z,7.03
2019-04-27T07:53:59.556Z,3.70
2019-04-27T07:56:32.984Z,3.13
2019-04-27T07:59:06.415Z,4.20
2019-04-27T08:01:39.841Z,3.00
2019-04-27T08:04:13.251Z,2.20
2019-04-27T08:06:46.683Z,2.30
2019-04-27T08:09:20.108Z,3.37
2019-04-27T08:11:53.535Z,4.57
2019-04-27T08:14:28.524Z,3.57
2019-04-27T08:17:02.103Z,3.00
2019-04-27T08:19:35.523Z,3.67
2019-04-27T08:22:09.678Z,2.13
2019-04-27T08:24:43.319Z,2.33
2019-04-27T08:27:30.509Z,1.73
2019-04-27T08:30:25.207Z,3.10
2019-04-27T08:33:00.278Z,3.10
2019-04-27T08:35:33.691Z,5.57
2019-04-27T08:38:08.939Z,3.60
2019-04-27T08:40:42.280Z,2.23
2019-04-27T08:43:15.724Z,3.07
2019-04-27T08:45:49.171Z,1.43
2019-04-27T08:48:33.877Z,1.90
2019-04-27T08:50:59.289Z,2.80
2019-04-27T08:53:32.853Z,2.00
2019-04-27T08:56:06.277Z,5.10
2019-04-27T08:58:39.708Z,1.87
2019-04-27T09:01:13.114Z,2.70
2019-04-27T09:03:46.543Z,3.83
2019-04-27T09:06:19.950Z,4.53
2019-04-27T09:08:55.022Z,2.03
2019-04-27T09:11:39.278Z,1.73
2019-04-27T09:14:20.417Z,3.43
2019-04-27T09:17:02.999Z,2.77
2019-04-27T09:19:49.047Z,1.97
2019-04-27T09:22:22.395Z,2.20
2019-04-27T09:24:55.811Z,2.53
2019-04-27T09:27:29.239Z,3.77
2019-04-27T09:30:02.657Z,2.63
2019-04-27T09:32:36.081Z,3.93
2019-04-27T09:35:09.832Z,3.27
2019-04-27T09:37:43.251Z,6.57
2019-04-27T09:40:17.184Z,1.97
2019-04-27T09:42:50.928Z,3.77
2019-04-27T09:45:24.347Z,3.43
2019-04-27T09:47:57.785Z,2.30
2019-04-27T09:50:31.212Z,2.67
2019-04-27T09:53:06.415Z,3.63
2019-04-27T09:55:39.927Z,2.73
2019-04-27T09:58:13.359Z,2.87
2019-04-27T10:00:48.428Z,3.50
2019-04-27T10:03:21.862Z,2.57
2019-04-27T10:05:56.854Z,6.33
2019-04-27T10:08:30.608Z,3.43
2019-04-27T10:11:05.809Z,3.53
2019-04-27T10:13:39.190Z,2.90
2019-04-27T10:16:12.610Z,2.87
2019-04-27T10:18:46.035Z,2.50
2019-04-27T10:21:19.461Z,2.50
2019-04-27T10:23:52.924Z,3.10
2019-04-27T10:26:26.345Z,2.83
2019-04-27T10:28:59.767Z,3.23
2019-04-27T10:31:33.181Z,2.20
2019-04-27T10:34:06.607Z,3.07
2019-04-27T10:36:40.037Z,2.30
2019-04-27T10:39:13.898Z,2.70
2019-04-27T10:41:47.347Z,4.33
2019-04-27T10:44:20.783Z,2.17
2019-04-27T10:46:54.190Z,2.00
2019-04-27T10:49:27.624Z,2.00
2019-04-27T10:52:01.040Z,1.77
2019-04-27T10:54:34.751Z,1.83
2019-04-27T10:57:08.236Z,9.63
2019-04-27T10:59:41.663Z,2.57
2019-04-27T11:02:15.083Z,2.67
2019-04-27T11:05:01.649Z,2.17
2019-04-27T11:07:36.700Z,5.40
2019-04-27T11:10:11.267Z,2.37
2019-04-27T11:12:45.812Z,1.67
2019-04-27T11:15:20.470Z,2.67
2019-04-27T11:17:53.887Z,1.77
2019-04-27T11:20:27.822Z,5.23
2019-04-27T11:23:09.450Z,1.87
2019-04-27T11:25:36.853Z,4.40
2019-04-27T11:28:10.268Z,2.20
2019-04-27T11:30:43.687Z,4.77
2019-04-27T11:33:17.108Z,2.37
2019-04-27T11:35:52.176Z,3.83
2019-04-27T11:38:26.637Z,2.63
2019-04-27T11:41:00.198Z,4.17
2019-04-27T11:43:33.611Z,9.60
2019-04-27T11:46:07.043Z,3.83
2019-04-27T11:48:40.738Z,3.10
2019-04-27T11:51:17.113Z,2.30
2019-04-27T11:53:49.299Z,3.10
2019-04-27T11:56:22.719Z,2.93
2019-04-27T11:58:56.172Z,3.47
2019-04-27T12:01:29.660Z,2.20
2019-04-27T12:04:03.071Z,2.63
2019-04-27T12:06:36.613Z,5.57
2019-04-27T12:09:10.408Z,2.80
2019-04-27T12:11:43.837Z,2.10
2019-04-27T12:14:17.251Z,2.10
2019-04-27T12:16:50.679Z,5.00
2019-04-27T12:19:24.094Z,3.47
2019-04-27T12:21:57.527Z,3.70
2019-04-27T12:24:30.943Z,1.83
2019-04-27T12:27:21.346Z,2.87
2019-04-27T12:30:06.269Z,4.97
2019-04-27T12:32:39.888Z,2.97
2019-04-27T12:35:13.468Z,1.67
2019-04-27T12:37:47.356Z,2.80
2019-04-27T12:40:20.784Z,1.87
2019-04-27T12:42:54.275Z,1.73
2019-04-27T12:45:27.695Z,2.20
2019-04-27T12:48:01.759Z,3.73
2019-04-27T12:50:36.200Z,3.83
2019-04-27T12:53:14.615Z,5.17
2019-04-27T12:55:52.396Z,2.73
2019-04-27T12:58:30.099Z,4.50
2019-04-27T13:01:07.337Z,1.93
2019-04-27T13:03:40.691Z,2.23
2019-04-27T13:06:14.178Z,2.53
2019-04-27T13:08:47.609Z,2.57
2019-04-27T13:11:22.902Z,3.27
2019-04-27T13:13:57.624Z,3.03
2019-04-27T13:16:31.374Z,2.43
2019-04-27T13:19:06.167Z,1.97
2019-04-27T13:21:39.804Z,2.77
2019-04-27T13:24:13.215Z,3.10
2019-04-27T13:26:46.642Z,2.40
2019-04-27T13:29:20.056Z,4.17
2019-04-27T13:31:53.681Z,3.13
2019-04-27T13:34:27.097Z,2.67
2019-04-27T13:37:02.167Z,2.30
2019-04-27T13:39:35.980Z,2.63
2019-04-27T13:42:09.495Z,1.70
2019-04-27T13:44:42.934Z,1.97
2019-04-27T13:47:27.248Z,2.80
2019-04-27T13:50:12.535Z,2.37
2019-04-27T13:52:46.716Z,1.67
2019-04-27T13:55:20.276Z,2.43
2019-04-27T13:57:53.703Z,2.63
2019-04-27T14:00:27.115Z,1.53
2019-04-27T14:03:00.563Z,2.20
2019-04-27T14:05:34.060Z,1.93
2019-04-27T14:08:09.066Z,3.57
2019-04-27T14:10:42.782Z,2.40
2019-04-27T14:13:18.081Z,1.50
2019-04-27T14:15:51.347Z,2.03
2019-04-27T14:18:24.777Z,1.40
2019-04-27T14:20:59.228Z,3.27
2019-04-27T14:23:33.824Z,1.70
2019-04-27T14:26:08.824Z,2.97
2019-04-27T14:28:42.632Z,1.30
2019-04-27T14:31:16.042Z,1.63
2019-04-27T14:33:49.543Z,2.23
2019-04-27T14:36:22.986Z,1.87
2019-04-27T14:38:56.433Z,2.13
2019-04-27T14:41:29.832Z,1.10
2019-04-27T14:44:08.111Z,2.43
2019-04-27T14:46:38.824Z,3.33
2019-04-27T14:49:12.319Z,1.37
2019-04-27T14:51:45.735Z,2.27
2019-04-27T14:54:19.173Z,3.67
2019-04-27T14:56:52.651Z,1.27
2019-04-27T14:59:26.083Z,1.53
2019-04-27T15:02:00.106Z,3.20
2019-04-27T15:04:33.705Z,1.53
2019-04-27T15:07:08.387Z,1.60
2019-04-27T15:09:41.823Z,2.50
2019-04-27T15:12:15.779Z,2.90
2019-04-27T15:14:49.550Z,6.70
2019-04-27T15:17:26.636Z,1.70
2019-04-27T15:19:59.767Z,0.60
2019-04-27T15:22:33.683Z,1.13
2019-04-27T15:25:13.085Z,2.73
2019-04-27T15:27:44.951Z,2.87
2019-04-27T15:30:22.176Z,3.43
2019-04-27T15:32:57.035Z,4.17
2019-04-27T15:35:44.036Z,4.07
2019-04-27T15:38:18.696Z,2.83
2019-04-27T15:41:02.920Z,3.87
2019-04-27T15:43:38.657Z,1.63
2019-04-27T15:46:12.374Z,2.10
2019-04-27T15:48:45.841Z,1.70
2019-04-27T15:51:21.128Z,2.23
2019-04-27T15:53:54.727Z,1.53
2019-04-27T15:56:30.439Z,5.30
2019-04-27T15:59:03.315Z,1.87
2019-04-27T16:01:39.066Z,11.13
2019-04-27T16:04:12.491Z,36.23
2019-04-27T16:06:47.515Z,4.27
2019-04-27T16:09:25.401Z,8.17
2019-04-27T16:12:06.724Z,3.10
2019-04-27T16:14:31.467Z,8.37
2019-04-27T16:17:08.109Z,3.07
2019-04-27T16:19:46.674Z,4.00
2019-04-27T16:22:18.297Z,3.27
2019-04-27T16:24:53.472Z,2.60
2019-04-27T16:27:31.445Z,7.70
2019-04-27T16:30:09.871Z,4.57
2019-04-27T16:32:40.359Z,4.23
2019-04-27T16:35:21.618Z,2.43
2019-04-27T16:38:08.111Z,3.13
2019-04-27T16:40:42.392Z,5.00
2019-04-27T16:43:15.815Z,4.43
2019-04-27T16:45:49.226Z,5.47
2019-04-27T16:48:22.659Z,5.53
2019-04-27T16:50:59.246Z,2.97
2019-04-27T16:53:38.156Z,6.10
2019-04-27T16:56:14.410Z,3.87
2019-04-27T16:58:41.817Z,1.87
2019-04-27T17:01:22.553Z,2.50
2019-04-27T17:03:56.265Z,2.03
2019-04-27T17:06:29.877Z,4.50
2019-04-27T17:09:07.398Z,4.97
2019-04-27T17:11:43.811Z,3.67
2019-04-27T17:14:35.084Z,4.80
2019-04-27T17:17:23.493Z,3.13
2019-04-27T17:20:01.609Z,4.63
2019-04-27T17:22:35.047Z,3.67
2019-04-27T17:25:09.031Z,3.27
2019-04-27T17:27:44.155Z,3.80
2019-04-27T17:30:18.864Z,3.40
2019-04-27T17:32:56.935Z,4.23
2019-04-27T17:35:30.345Z,6.27
2019-04-27T17:38:08.129Z,5.57
2019-04-27T17:40:39.046Z,5.50
2019-04-27T17:43:12.622Z,3.97
2019-04-27T17:45:48.466Z,5.50
2019-04-27T17:48:21.575Z,4.67
2019-04-27T17:50:55.962Z,5.00
2019-04-27T17:53:33.109Z,8.50
2019-04-27T17:56:06.045Z,6.07
2019-04-27T17:58:40.946Z,5.00
2019-04-27T18:01:19.131Z,7.37
2019-04-27T18:03:58.529Z,4.80
2019-04-27T18:06:27.825Z,4.77
2019-04-27T18:09:03.313Z,8.90
2019-04-27T18:11:37.295Z,7.87
2019-04-27T18:14:14.347Z,7.03
2019-04-27T18:16:45.506Z,4.73
2019-04-27T18:19:28.192Z,3.37
2019-04-27T18:22:03.527Z,5.90
2019-04-27T18:24:41.563Z,5.17
2019-04-27T18:27:33.630Z,5.80
2019-04-27T18:30:22.832Z,5.10
2019-04-27T18:32:59.343Z,6.60
2019-04-27T18:35:31.570Z,4.23
2019-04-27T18:38:04.979Z,4.33
2019-04-27T18:40:40.178Z,4.10
2019-04-27T18:43:32.968Z,28.10
2019-04-27T18:46:06.383Z,5.90
2019-04-27T18:48:44.783Z,5.73
2019-04-27T18:51:20.763Z,6.67
2019-04-27T18:53:54.181Z,5.13
2019-04-27T18:56:29.065Z,4.00
2019-04-27T18:59:04.060Z,3.87
2019-04-27T19:01:37.480Z,4.83
2019-04-27T19:04:10.913Z,5.50
2019-04-27T19:06:44.322Z,2.17
2019-04-27T19:09:18.623Z,3.70
2019-04-27T19:11:56.149Z,1.63
2019-04-27T19:14:28.238Z,2.27
2019-04-27T19:17:02.068Z,3.90
2019-04-27T19:19:35.499Z,1.73
2019-04-27T19:22:09.049Z,2.07
2019-04-27T19:24:42.527Z,3.47
2019-04-27T19:27:21.131Z,2.80
2019-04-27T19:29:56.665Z,1.73
2019-04-27T19:32:30.090Z,1.90
2019-04-27T19:35:04.629Z,1.20
2019-04-27T19:37:39.712Z,3.43
2019-04-27T19:40:13.625Z,7.50
2019-04-27T19:42:48.623Z,1.50
2019-04-27T19:45:22.200Z,1.83
2019-04-27T19:47:55.616Z,2.30
2019-04-27T19:50:29.048Z,1.70
2019-04-27T19:53:02.463Z,1.87
2019-04-27T19:55:35.894Z,2.57
2019-04-27T19:58:09.308Z,3.27
2019-04-27T20:01:09.096Z,3.00
2019-04-27T20:03:38.803Z,1.77
2019-04-27T20:06:12.408Z,3.37
2019-04-27T20:08:53.168Z,2.63
2019-04-27T20:11:26.599Z,3.00
2019-04-27T20:14:00.830Z,2.47
2019-04-27T20:16:34.487Z,2.20
2019-04-27T20:19:07.902Z,1.67
2019-04-27T20:21:41.332Z,4.07
2019-04-27T20:24:14.748Z,2.23
2019-04-27T20:26:48.179Z,2.67
2019-04-27T20:29:21.838Z,2.90
2019-04-27T20:31:55.496Z,2.23
2019-04-27T20:34:28.924Z,3.23
2019-04-27T20:37:05.100Z,4.33
2019-04-27T20:39:38.519Z,3.07
2019-04-27T20:42:12.588Z,3.27
2019-04-27T20:44:46.237Z,5.93
2019-04-27T20:47:19.827Z,3.23
2019-04-27T20:49:53.238Z,2.97
2019-04-27T20:52:31.363Z,1.70
2019-04-27T20:55:08.303Z,3.63
2019-04-27T20:57:41.782Z,5.00
2019-04-27T21:00:16.866Z,3.07
2019-04-27T21:02:52.026Z,3.73
2019-04-27T21:05:31.007Z,2.47
2019-04-27T21:08:07.077Z,3.30
2019-04-27T21:10:41.382Z,3.33
2019-04-27T21:13:14.939Z,2.73
2019-04-27T21:15:48.352Z,3.63
2019-04-27T21:18:21.859Z,3.77
2019-04-27T21:20:55.755Z,2.83
2019-04-27T21:23:31.063Z,3.50
2019-04-27T21:26:04.567Z,3.27
2019-04-27T21:28:37.995Z,2.47
2019-04-27T21:31:12.759Z,3.50
2019-04-27T21:33:46.524Z,4.43
2019-04-27T21:36:21.652Z,1.70
2019-04-27T21:38:55.087Z,1.83
2019-04-27T21:41:28.499Z,4.53
2019-04-27T21:44:01.923Z,5.20
2019-04-27T21:46:35.344Z,4.03
2019-04-27T21:49:08.766Z,3.33
2019-04-27T21:52:01.362Z,4.67
2019-04-27T21:54:36.655Z,3.20
2019-04-27T21:57:11.024Z,4.20
2019-04-27T21:59:45.218Z,5.07
2019-04-27T22:02:20.358Z,2.67
2019-04-27T22:04:55.394Z,5.90
2019-04-27T22:07:28.818Z,3.27
2019-04-27T22:10:02.256Z,3.10
2019-04-27T22:12:35.663Z,1.90
2019-04-27T22:15:11.042Z,3.40
2019-04-27T22:17:44.278Z,4.97
2019-04-27T22:20:17.776Z,3.97
2019-04-27T22:22:58.632Z,7.50
2019-04-27T22:25:35.752Z,2.43
2019-04-27T22:28:08.872Z,5.83
2019-04-27T22:30:42.294Z,5.63
2019-04-27T22:33:15.698Z,4.97
2019-04-27T22:35:49.506Z,5.13
2019-04-27T22:38:22.915Z,5.93
2019-04-27T22:40:57.995Z,2.30
2019-04-27T22:43:34.050Z,3.73
2019-04-27T22:46:17.696Z,4.50
2019-04-27T22:48:51.716Z,5.87
2019-04-27T22:51:25.510Z,2.77
2019-04-27T22:53:58.927Z,4.70
2019-04-27T22:56:32.398Z,4.67
2019-04-27T22:59:13.515Z,4.33
2019-04-27T23:01:51.427Z,7.07
2019-04-27T23:04:26.471Z,7.90
2019-04-27T23:07:00.649Z,5.47
2019-04-27T23:09:35.123Z,8.00
2019-04-27T23:12:09.008Z,5.03
2019-04-27T23:14:42.443Z,6.23
2019-04-27T23:17:32.684Z,4.60
2019-04-27T23:20:07.347Z,6.33
2019-04-27T23:22:40.775Z,5.97
2019-04-27T23:25:14.210Z,5.67
2019-04-27T23:27:47.660Z,3.90
2019-04-27T23:30:22.720Z,4.37
2019-04-27T23:32:56.140Z,5.90
2019-04-27T23:35:32.810Z,5.90
2019-04-27T23:38:14.731Z,4.97
2019-04-27T23:40:41.665Z,5.33
2019-04-27T23:43:15.035Z,3.60
2019-04-27T23:45:48.586Z,4.50
2019-04-27T23:48:22.673Z,6.80
2019-04-27T23:50:58.843Z,4.67
2019-04-27T23:53:33.900Z,6.23
2019-04-27T23:56:07.336Z,5.40
2019-04-27T23:58:40.747Z,6.13
